Aeroporto :
LOGIN :

Iscrizione | Disclaimer

   EN    FR    IT 

 










Sommario :    VFR   VFR Marginale   IFR   IFR Intensivo   IFR Molto Intensivo
Visibilità : 
Base nubi : 
>= 8 km
>= 3000ft
5 / 8 km
1000 / 3000 ft
1500m / 5 km
500 / 1000 ft
800 / 1500m
200 / 500 ft
< 800m
< 200 ft
Simboli :   Temporali  Nebbia  Neve Forte  Precipitazioni Forti  Vento > 20 kt
SIGMETs :   Varie  Temporali  Ghiacco  Turbolenza  Onda orograficha  Ceneri Vulcaniche






- Altitudine del aeroporto : 616 ft
- Codice IATA : PUF


LFBP - Pau

ULTIMO METAR :
  • 251730Z AUTO 34003KT 9999 FEW076 SCT092 BKN110 10/07 Q1016 NOSIG

METARs OBSOLETI :
  • 251700Z AUTO 34003KT 9999 SCT078 BKN090 10/07 Q1016 NOSIG
  • 251630Z AUTO 04003KT 9999 SCT074 BKN090 11/06 Q1016 NOSIG
  • 251600Z AUTO 02004KT 9999 SCT100 11/05 Q1016 NOSIG
  • 251530Z AUTO 03003KT 9999 SCT100 BKN230 12/06 Q1016 NOSIG
  • 251500Z AUTO 27002KT 9999 FEW100 12/06 Q1016 NOSIG

TAF TAF LFBP
Valido dal 25 a 18 ore il 26 a 18 ore UTC


251700Z 2518/2618 04004KT 9999 SCT090
TEMPO 2522/2608 4000 -RA BKN008 BKN030
BECMG 2608/2610 NSW SCT040



MetMap, La meteo Aeronautica in un colpo d'occhio ! - Copyright ORBIFLY Dicembre 2007 - Disclaimer

ORBIFLY MET'MAP TEAM :

Programmazione e sviluppo : Alexandra Zaïnal
Concezione : Baudouin d'Aumeries
Aiuto per la programmazione : Marc-Olivier Méhu
Supporto tecnico e logistico : Manuel Goepfert
Aiuto per la traduzione : Arnaldo La Scala

Contatto : metmap@orbifly.com




FONTI E CREDITI :

   NOAA